Aérodrome :
LOGIN :

S'inscrire | Disclaimer

   EN    FR    IT 

 










Légende :    VFR   VFR Marginal   IFR   IFR Intensif   IFR Très Intensif
Visi : 
Plafond : 
>= 8 km
>= 3000ft
5 à 8 km
1000 à 3000 ft
1500m à 5 km
500 à 1000 ft
800 à 1500m
200 à 500 ft
< 800m
< 200 ft
Symboles :   Orages  Brouillard  Fortes neiges  Fortes précipitations  Vent > 20 kt
SIGMETs :   Divers  Orages  Givrage  Turbulence  Onde Orograph.  Cendres Volcan.







- Altitude de l'aérodrome : 527 ft
- Code IATA : DBV


LDDU - Dubrovnik

DERNIER METAR :
  • 220300Z 08008KT CAVOK 15/11 Q1015 NOSIG

METARs EXPIRÉS :
  • 220230Z 08008KT CAVOK 14/11 Q1015 NOSIG
  • 220200Z 07009KT 9999 SCT050 14/11 Q1015 NOSIG
  • 220130Z 07009KT 9999 SCT050 15/11 Q1015
  • 220100Z 09009KT 9999 SCT050 14/12 Q1015
  • 220030Z 09006KT 9999 SCT050 14/11 Q1015

TAF TAF LDDU
Valide du 22 à 00h jusqu'au 23 à 00h UTC


212325Z 2200/2300 09008KT 9999 SCT030 TX19/2212Z TN12/2223Z
BECMG 2206/2208 12012KT
BECMG 2212/2214 VRB02KT
Pas de NOTAMs connus pour ce terrain.



MET'MAP, la Météo Aéronautique d'un coup d'oeil ! - Copyright ORBIFLY Décembre 2007 - Disclaimer

ORBIFLY MET'MAP TEAM :

Programmation & Développement : Alexandra Zaïnal
Conception & Développement : Baudouin d'Aumeries
Co-Programmation & Développement : Marc-Olivier Méhu
Soutien technique & logistique : Manuel Goepfert

Contact : metmap@orbifly.com




SOURCES & CREDITS :

   NOAA